Time;durP1;ratioP1;P1;durP2;ratioP2;P2;SDS_P1;SDS_P2;PMS_P1;PMS_P2;Temp;Humidity;BMP_temperature;BMP_pressure;BME280_temperature;BME280_humidity;BME280_pressure;Samples;Min_cycle;Max_cycle;Signal;HPM_P1;HPM_P2
2023/11/05 00:00:13;;;;;;;7.18;1.52;;;11.00;85.30;;;;;;9162640;19;20018;-71
2023/11/05 00:03:21;;;;;;;6.63;2.28;;;11.00;85.20;;;;;;9161549;19;20019;-72
2023/11/05 00:06:26;;;;;;;5.32;1.40;;;11.00;85.30;;;;;;9162023;19;20381;-70
2023/11/05 00:09:37;;;;;;;14.48;2.25;;;11.00;85.30;;;;;;9162964;19;20021;-70
2023/11/05 00:12:42;;;;;;;8.90;1.75;;;11.00;85.30;;;;;;9161222;19;20018;-72
2023/11/05 00:15:54;;;;;;;12.38;2.20;;;11.00;85.30;;;;;;9162124;19;20357;-70
2023/11/05 00:18:59;;;;;;;11.75;1.65;;;11.00;85.30;;;;;;9162973;19;20735;-70
2023/11/05 00:22:07;;;;;;;4.78;1.52;;;11.00;85.30;;;;;;9164038;19;20023;-72
2023/11/05 00:25:15;;;;;;;5.45;1.33;;;11.10;85.30;;;;;;9162845;19;20026;-70
2023/11/05 00:28:23;;;;;;;12.30;1.85;;;11.00;85.30;;;;;;9164681;19;20814;-70
2023/11/05 00:31:28;;;;;;;14.98;1.77;;;11.10;85.30;;;;;;9163197;19;20025;-73
2023/11/05 00:34:36;;;;;;;7.53;2.03;;;11.00;85.30;;;;;;9161379;19;20015;-71
2023/11/05 00:37:42;;;;;;;8.88;1.80;;;11.00;85.30;;;;;;9162730;19;20424;-70
2023/11/05 00:40:52;;;;;;;7.45;2.55;;;11.10;85.30;;;;;;9162848;19;20014;-70
2023/11/05 00:43:57;;;;;;;6.82;1.42;;;11.10;85.30;;;;;;9162670;19;20014;-71
2023/11/05 00:47:05;;;;;;;11.65;2.22;;;11.10;85.30;;;;;;9163073;19;20067;-70
2023/11/05 00:50:11;;;;;;;16.15;2.00;;;11.00;85.20;;;;;;9164289;19;20011;-74
2023/11/05 00:53:18;;;;;;;7.25;1.52;;;11.00;85.20;;;;;;9162111;19;20349;-69
2023/11/05 00:56:26;;;;;;;10.43;1.92;;;11.00;85.20;;;;;;9158785;19;20458;-72
2023/11/05 00:59:34;;;;;;;13.80;1.60;;;11.00;85.20;;;;;;9164458;19;20025;-70
2023/11/05 01:02:40;;;;;;;9.35;1.42;;;11.00;85.10;;;;;;9164058;19;20023;-71
2023/11/05 01:06:04;;;;;;;8.55;1.92;;;11.00;85.10;;;;;;9163146;19;20018;-70
2023/11/05 01:09:10;;;;;;;8.10;1.73;;;11.00;85.10;;;;;;9163689;19;20022;-70
2023/11/05 01:12:20;;;;;;;14.20;1.67;;;10.90;85.00;;;;;;9163430;19;20014;-69
2023/11/05 01:15:26;;;;;;;9.20;1.80;;;10.90;85.10;;;;;;9163064;19;20372;-73
2023/11/05 01:18:33;;;;;;;6.95;1.48;;;10.90;85.10;;;;;;9164217;19;20367;-68
2023/11/05 01:21:39;;;;;;;6.47;1.55;;;10.90;85.10;;;;;;9160849;19;20295;-71
2023/11/05 01:24:47;;;;;;;10.70;2.85;;;10.80;85.10;;;;;;9163644;19;20052;-71
2023/11/05 01:27:55;;;;;;;17.00;2.03;;;10.90;85.20;;;;;;9162225;19;20010;-69
2023/11/05 01:31:02;;;;;;;11.43;2.10;;;10.80;85.20;;;;;;9163343;19;20338;-70
2023/11/05 01:34:08;;;;;;;10.77;1.75;;;10.80;85.20;;;;;;9163380;19;20011;-73
2023/11/05 01:37:15;;;;;;;14.32;2.17;;;10.80;85.10;;;;;;9161271;19;21017;-70
2023/11/05 01:40:21;;;;;;;9.45;2.08;;;10.70;85.10;;;;;;9162528;19;20029;-70
2023/11/05 01:43:31;;;;;;;14.05;1.38;;;10.70;85.10;;;;;;9161502;19;20082;-70
2023/11/05 01:46:39;;;;;;;10.20;1.73;;;10.70;85.20;;;;;;9160001;19;20018;-72
2023/11/05 01:49:46;;;;;;;12.18;2.55;;;10.70;85.10;;;;;;9160924;19;20010;-70
2023/11/05 01:52:54;;;;;;;20.73;2.50;;;10.70;85.10;;;;;;9172581;19;20025;-68
2023/11/05 01:56:03;;;;;;;9.55;1.70;;;10.70;85.10;;;;;;9165808;19;20018;-69
2023/11/05 01:59:11;;;;;;;12.05;1.83;;;10.70;85.20;;;;;;9169992;19;20025;-70
2023/11/05 02:02:20;;;;;;;11.68;1.85;;;10.10;84.80;;;;;;9170813;19;20019;-70
2023/11/05 02:05:26;;;;;;;13.15;1.80;;;10.60;85.10;;;;;;9168328;19;20448;-71
2023/11/05 02:08:33;;;;;;;13.45;2.58;;;10.60;85.10;;;;;;9167286;19;20014;-70
2023/11/05 02:11:40;;;;;;;9.23;1.77;;;10.60;85.20;;;;;;9169289;19;20440;-71
2023/11/05 02:14:56;;;;;;;14.13;2.38;;;10.60;85.20;;;;;;9169416;19;20960;-70
2023/11/05 02:18:03;;;;;;;22.13;2.63;;;10.60;85.20;;;;;;9167093;19;20393;-70
2023/11/05 02:21:14;;;;;;;11.25;2.00;;;10.60;85.20;;;;;;9167569;19;20356;-73
2023/11/05 02:24:22;;;;;;;11.27;2.00;;;10.60;85.20;;;;;;9170647;19;20018;-71
2023/11/05 02:27:29;;;;;;;19.95;2.47;;;10.60;85.30;;;;;;9170572;19;20018;-70
2023/11/05 02:30:35;;;;;;;10.65;2.50;;;10.50;85.30;;;;;;9167929;19;20015;-72
2023/11/05 02:33:44;;;;;;;12.93;2.33;;;10.60;85.40;;;;;;9168570;19;20018;-69
2023/11/05 02:36:50;;;;;;;15.85;2.47;;;10.60;85.30;;;;;;9167739;19;20025;-69
2023/11/05 02:40:00;;;;;;;11.50;1.98;;;10.60;85.30;;;;;;9169525;19;20014;-71
2023/11/05 02:43:06;;;;;;;13.70;2.72;;;10.60;85.30;;;;;;9167628;19;20019;-71
2023/11/05 02:46:13;;;;;;;9.48;1.98;;;10.60;85.30;;;;;;9169963;19;20018;-70
2023/11/05 02:49:20;;;;;;;10.25;2.33;;;10.60;85.40;;;;;;9169045;19;20373;-69
2023/11/05 02:52:27;;;;;;;10.07;2.20;;;10.60;85.50;;;;;;9169134;19;20043;-71
2023/11/05 02:55:35;;;;;;;8.90;2.22;;;10.60;85.40;;;;;;9165428;19;20032;-73
2023/11/05 02:58:44;;;;;;;14.13;1.98;;;10.60;85.50;;;;;;9169155;19;20696;-70
2023/11/05 03:01:49;;;;;;;15.70;1.92;;;10.60;85.50;;;;;;9167258;19;20021;-71
2023/11/05 03:04:59;;;;;;;8.48;1.63;;;10.60;85.50;;;;;;9168986;19;20484;-72
2023/11/05 03:08:07;;;;;;;10.88;1.85;;;10.60;85.50;;;;;;9166121;19;20011;-69
2023/11/05 03:11:17;;;;;;;6.55;1.70;;;10.70;85.60;;;;;;9169136;19;20022;-71
2023/11/05 03:14:22;;;;;;;6.80;1.40;;;10.60;85.50;;;;;;9169523;19;20026;-69
2023/11/05 03:17:29;;;;;;;4.18;1.55;;;10.70;85.50;;;;;;9166603;19;20082;-70
2023/11/05 03:20:35;;;;;;;10.57;1.73;;;10.70;85.60;;;;;;9166873;19;20019;-70
2023/11/05 03:23:43;;;;;;;9.15;2.00;;;10.70;85.60;;;;;;9166454;19;20021;-69
2023/11/05 03:26:51;;;;;;;4.22;1.15;;;10.70;85.60;;;;;;9168148;19;20010;-69
2023/11/05 03:29:59;;;;;;;7.55;1.50;;;10.70;85.60;;;;;;9168735;19;20599;-70
2023/11/05 03:33:05;;;;;;;6.32;1.38;;;10.70;85.70;;;;;;9168077;19;20483;-70
2023/11/05 03:36:13;;;;;;;6.20;1.25;;;10.70;85.60;;;;;;9166830;19;20021;-73
2023/11/05 03:39:19;;;;;;;3.22;1.20;;;10.70;85.70;;;;;;9167433;19;20031;-72
2023/11/05 03:42:29;;;;;;;8.50;1.60;;;10.70;85.70;;;;;;9167090;19;20632;-71
2023/11/05 03:45:34;;;;;;;10.80;1.45;;;10.80;85.80;;;;;;9166035;19;20027;-69
2023/11/05 03:48:41;;;;;;;7.25;1.20;;;10.80;85.70;;;;;;9164652;19;20852;-70
2023/11/05 03:51:47;;;;;;;6.57;1.65;;;10.80;85.80;;;;;;9166852;19;20022;-69
2023/11/05 03:54:55;;;;;;;8.57;1.42;;;10.80;85.80;;;;;;9161427;19;20018;-71
2023/11/05 03:58:03;;;;;;;9.25;1.40;;;10.80;85.80;;;;;;9164159;19;20345;-69
2023/11/05 04:01:17;;;;;;;5.40;1.13;;;10.80;85.80;;;;;;9166749;19;20019;-70
2023/11/05 04:04:23;;;;;;;8.75;1.20;;;10.80;85.80;;;;;;9165815;19;20025;-72
2023/11/05 04:07:31;;;;;;;6.68;1.20;;;10.80;85.80;;;;;;9163839;19;20482;-70
2023/11/05 04:10:36;;;;;;;4.20;1.42;;;10.90;85.90;;;;;;9167219;19;20053;-70
2023/11/05 04:13:49;;;;;;;4.65;1.20;;;10.90;85.80;;;;;;9164337;19;20494;-71
2023/11/05 04:16:55;;;;;;;8.63;1.10;;;10.90;85.90;;;;;;9165133;19;20014;-70
2023/11/05 04:20:04;;;;;;;3.10;1.10;;;10.90;85.90;;;;;;9166101;19;20104;-73
2023/11/05 04:23:09;;;;;;;6.43;1.05;;;10.90;85.90;;;;;;9166613;19;20014;-72
2023/11/05 04:26:17;;;;;;;8.57;1.42;;;10.90;85.90;;;;;;9165696;19;20285;-71
2023/11/05 04:29:25;;;;;;;7.97;0.90;;;10.90;85.90;;;;;;9166173;19;20491;-73
2023/11/05 04:32:32;;;;;;;3.70;0.90;;;11.00;86.00;;;;;;9165286;19;20018;-72
2023/11/05 04:35:38;;;;;;;3.33;0.90;;;10.90;86.00;;;;;;9163960;19;20006;-71
2023/11/05 04:38:45;;;;;;;2.92;1.08;;;11.00;86.00;;;;;;9161790;19;20495;-73
2023/11/05 04:41:51;;;;;;;3.85;0.80;;;11.00;86.00;;;;;;9165624;19;20053;-71
2023/11/05 04:45:01;;;;;;;7.78;1.20;;;11.00;86.10;;;;;;9165786;19;20013;-72
2023/11/05 04:48:09;;;;;;;3.90;1.20;;;11.00;86.00;;;;;;9164198;19;20502;-72
2023/11/05 04:51:16;;;;;;;2.75;1.05;;;11.00;86.60;;;;;;9164983;19;20453;-72
2023/11/05 04:54:21;;;;;;;6.18;1.45;;;11.00;86.00;;;;;;9161419;19;20010;-74
2023/11/05 04:57:29;;;;;;;6.45;1.30;;;11.10;86.10;;;;;;9162846;19;20430;-72
2023/11/05 05:00:37;;;;;;;5.70;1.40;;;11.10;86.20;;;;;;9162449;19;20011;-73
2023/11/05 05:03:44;;;;;;;6.00;1.20;;;11.10;86.20;;;;;;9163474;19;20014;-73
2023/11/05 05:06:51;;;;;;;5.65;1.60;;;11.10;86.20;;;;;;9162467;19;20010;-72
2023/11/05 05:09:58;;;;;;;7.15;1.45;;;11.10;86.20;;;;;;9162449;19;20014;-73
2023/11/05 05:13:04;;;;;;;4.47;1.08;;;11.10;86.20;;;;;;9164099;19;20044;-72
2023/11/05 05:16:18;;;;;;;4.60;1.52;;;11.10;86.20;;;;;;9164481;19;20029;-72
2023/11/05 05:19:24;;;;;;;8.32;1.95;;;11.10;86.20;;;;;;9162452;19;20377;-71
2023/11/05 05:22:32;;;;;;;9.73;1.90;;;11.10;86.10;;;;;;9161529;19;20555;-74
2023/11/05 05:25:38;;;;;;;7.60;1.88;;;11.10;86.20;;;;;;9163433;19;20090;-72
2023/11/05 05:28:47;;;;;;;7.30;2.33;;;11.10;86.20;;;;;;9163776;19;20059;-71
2023/11/05 05:31:56;;;;;;;6.43;1.83;;;11.10;86.30;;;;;;9160014;19;20022;-71
2023/11/05 05:35:04;;;;;;;7.20;2.35;;;11.10;86.30;;;;;;9160944;19;20397;-73
2023/11/05 05:38:09;;;;;;;12.32;2.20;;;11.10;86.30;;;;;;9162464;19;20607;-71
2023/11/05 05:41:17;;;;;;;4.75;1.92;;;11.10;86.30;;;;;;9160929;19;20022;-70
2023/11/05 05:44:22;;;;;;;11.70;2.70;;;11.10;86.30;;;;;;9163583;19;20431;-73
2023/11/05 05:47:33;;;;;;;8.57;2.42;;;11.20;86.40;;;;;;9163113;19;20094;-73
2023/11/05 05:50:38;;;;;;;4.95;1.92;;;11.10;86.40;;;;;;9163474;19;20028;-72
2023/11/05 05:53:46;;;;;;;7.13;2.38;;;11.10;86.40;;;;;;9162720;19;20703;-72
2023/11/05 05:56:51;;;;;;;8.15;2.92;;;11.20;86.50;;;;;;9158180;19;20057;-72
2023/11/05 05:59:59;;;;;;;5.53;2.25;;;11.20;86.50;;;;;;9159699;19;20025;-72
2023/11/05 06:03:13;;;;;;;9.60;2.30;;;11.20;86.50;;;;;;9162003;19;20034;-73
2023/11/05 06:06:20;;;;;;;7.25;3.15;;;11.20;86.50;;;;;;9160623;19;20010;-74
2023/11/05 06:09:29;;;;;;;6.90;2.38;;;11.20;86.50;;;;;;9160159;19;20037;-71
2023/11/05 06:12:38;;;;;;;8.88;2.28;;;11.20;86.50;;;;;;9159814;19;20015;-73
2023/11/05 06:15:44;;;;;;;9.38;2.88;;;11.20;86.60;;;;;;9161997;19;20419;-73
2023/11/05 06:18:57;;;;;;;5.95;2.03;;;11.20;86.50;;;;;;9160278;19;20018;-71
2023/11/05 06:22:02;;;;;;;9.45;2.58;;;11.20;86.60;;;;;;9161175;19;20707;-71
2023/11/05 06:25:12;;;;;;;6.63;2.30;;;11.20;86.50;;;;;;9159975;19;20026;-71
2023/11/05 06:28:18;;;;;;;6.57;2.28;;;11.20;86.60;;;;;;9160972;19;20113;-71
2023/11/05 06:31:25;;;;;;;6.22;2.10;;;11.20;86.60;;;;;;9161020;19;20019;-71
2023/11/05 06:34:33;;;;;;;4.85;2.35;;;11.20;86.60;;;;;;9161096;19;20022;-72
2023/11/05 06:37:41;;;;;;;9.75;2.92;;;11.30;86.60;;;;;;9166659;19;20018;-73
2023/11/05 06:40:46;;;;;;;3.65;1.85;;;11.30;86.60;;;;;;9170405;19;20015;-71
2023/11/05 06:43:53;;;;;;;4.82;2.40;;;11.30;86.70;;;;;;9169754;19;20018;-73
2023/11/05 06:46:59;;;;;;;7.55;2.72;;;11.20;86.60;;;;;;9170230;19;20022;-73
2023/11/05 06:50:09;;;;;;;4.70;2.42;;;11.30;86.70;;;;;;9167235;19;20010;-72
2023/11/05 06:53:15;;;;;;;6.60;3.05;;;11.30;86.70;;;;;;9169844;19;20045;-73
2023/11/05 06:56:22;;;;;;;10.68;2.78;;;11.30;86.70;;;;;;9165292;19;20015;-70
2023/11/05 06:59:28;;;;;;;10.95;2.60;;;11.30;86.80;;;;;;9168097;19;20015;-70
2023/11/05 07:02:36;;;;;;;6.05;2.67;;;11.30;86.80;;;;;;9165657;19;20015;-70
2023/11/05 07:05:44;;;;;;;4.93;2.55;;;11.30;86.80;;;;;;9167788;19;20356;-72
2023/11/05 07:08:52;;;;;;;9.02;3.03;;;11.30;86.80;;;;;;9167365;19;20018;-72
2023/11/05 07:11:57;;;;;;;10.90;4.15;;;11.30;86.80;;;;;;9169050;19;20015;-70
2023/11/05 07:15:05;;;;;;;4.20;2.95;;;11.30;86.80;;;;;;9168774;19;20025;-70
2023/11/05 07:18:13;;;;;;;6.93;2.55;;;11.30;86.80;;;;;;9169342;19;20687;-72
2023/11/05 07:21:23;;;;;;;4.60;2.88;;;11.30;86.80;;;;;;9167917;19;20018;-70
2023/11/05 07:24:28;;;;;;;5.47;2.70;;;11.30;86.90;;;;;;9167315;19;20086;-71
2023/11/05 07:27:38;;;;;;;7.93;2.90;;;11.30;86.90;;;;;;9168043;19;20022;-71
2023/11/05 07:30:44;;;;;;;11.25;5.20;;;11.30;86.90;;;;;;9167712;19;20024;-70
2023/11/05 07:33:52;;;;;;;6.85;3.70;;;11.40;87.00;;;;;;9166675;19;20018;-70
2023/11/05 07:37:00;;;;;;;11.45;3.10;;;11.40;87.00;;;;;;9167304;19;20025;-70
2023/11/05 07:40:08;;;;;;;6.22;2.78;;;11.40;87.00;;;;;;9164431;19;20021;-70
2023/11/05 07:43:14;;;;;;;9.18;3.30;;;11.40;87.00;;;;;;9165612;19;20791;-71
2023/11/05 07:46:22;;;;;;;8.00;3.53;;;11.40;87.00;;;;;;9168030;19;20025;-72
2023/11/05 07:49:27;;;;;;;8.43;2.85;;;11.40;87.10;;;;;;9164483;19;20035;-69
2023/11/05 07:52:38;;;;;;;3.13;2.13;;;11.40;87.00;;;;;;9164856;19;20029;-70
2023/11/05 07:55:43;;;;;;;5.78;2.85;;;11.50;87.10;;;;;;9160916;19;20025;-72
2023/11/05 07:58:52;;;;;;;4.10;2.70;;;11.50;87.10;;;;;;9166892;19;20078;-69
2023/11/05 08:01:57;;;;;;;4.65;2.17;;;11.50;87.20;;;;;;9165682;19;20018;-74
2023/11/05 08:05:08;;;;;;;6.13;2.60;;;11.50;87.20;;;;;;9166602;19;20021;-71
2023/11/05 08:08:16;;;;;;;6.47;2.28;;;11.50;87.20;;;;;;9165013;19;20456;-73
2023/11/05 08:11:24;;;;;;;8.40;2.28;;;11.50;87.20;;;;;;9163936;19;20945;-72
2023/11/05 08:14:29;;;;;;;3.85;2.15;;;11.50;87.20;;;;;;9165812;19;20376;-74
2023/11/05 08:17:37;;;;;;;8.63;2.35;;;11.60;87.30;;;;;;9162171;19;20094;-73
2023/11/05 08:20:42;;;;;;;4.18;1.95;;;11.50;87.20;;;;;;9159088;19;20011;-74
2023/11/05 08:23:53;;;;;;;6.15;2.30;;;11.60;87.30;;;;;;9163264;19;20022;-72
2023/11/05 08:26:59;;;;;;;6.65;2.30;;;11.60;87.30;;;;;;9163612;19;20236;-74
2023/11/05 08:30:13;;;;;;;6.47;2.10;;;11.60;87.20;;;;;;9165775;19;20367;-73
2023/11/05 08:33:18;;;;;;;4.82;1.83;;;11.60;87.30;;;;;;9165554;19;20021;-72
2023/11/05 08:36:26;;;;;;;6.43;1.60;;;11.60;87.30;;;;;;9162996;19;20022;-73
2023/11/05 08:39:34;;;;;;;5.55;2.20;;;11.70;87.30;;;;;;9164711;19;20400;-73
2023/11/05 08:42:42;;;;;;;3.35;1.70;;;11.70;87.40;;;;;;9165240;19;20022;-73
2023/11/05 08:45:47;;;;;;;3.65;2.20;;;11.70;87.30;;;;;;9162838;19;20049;-72
2023/11/05 08:49:02;;;;;;;5.28;1.80;;;11.70;87.30;;;;;;9160095;19;20094;-71
2023/11/05 08:52:08;;;;;;;7.25;2.20;;;11.70;87.30;;;;;;9163779;19;20010;-71
2023/11/05 08:55:18;;;;;;;3.13;1.83;;;11.70;87.30;;;;;;9157895;19;20014;-70
2023/11/05 08:58:24;;;;;;;3.90;1.70;;;11.70;87.30;;;;;;9163266;19;20367;-71
2023/11/05 09:01:31;;;;;;;5.95;1.67;;;11.70;87.30;;;;;;9162107;19;20429;-72
2023/11/05 09:04:37;;;;;;;6.70;1.95;;;11.70;87.40;;;;;;9164469;19;20578;-71
2023/11/05 09:07:45;;;;;;;7.57;1.67;;;11.80;87.40;;;;;;9162583;19;20022;-72
2023/11/05 09:10:53;;;;;;;3.30;1.85;;;11.80;87.50;;;;;;9163176;19;20023;-72
2023/11/05 09:14:02;;;;;;;5.57;1.88;;;11.80;87.50;;;;;;9164308;19;20095;-72
2023/11/05 09:17:09;;;;;;;4.95;1.80;;;11.80;87.50;;;;;;9163286;19;20025;-71
2023/11/05 09:20:16;;;;;;;5.07;1.73;;;11.90;87.60;;;;;;9163019;19;20014;-74
2023/11/05 09:23:22;;;;;;;9.98;4.00;;;11.90;87.60;;;;;;9163182;19;20472;-71
2023/11/05 09:26:35;;;;;;;7.45;3.25;;;11.90;87.60;;;;;;9163073;19;20019;-71
2023/11/05 09:29:40;;;;;;;7.50;2.38;;;12.00;87.70;;;;;;9163461;19;20021;-72
2023/11/05 09:32:48;;;;;;;7.60;2.35;;;12.00;87.80;;;;;;9163223;19;20019;-71
2023/11/05 09:35:57;;;;;;;6.38;2.13;;;12.10;87.80;;;;;;9161859;19;20015;-71
2023/11/05 09:39:07;;;;;;;5.68;2.33;;;12.10;88.00;;;;;;9162719;19;20014;-72
2023/11/05 09:42:18;;;;;;;2.63;1.60;;;12.20;87.90;;;;;;9160202;19;20017;-75
2023/11/05 09:45:30;;;;;;;7.55;2.20;;;12.20;87.90;;;;;;9160834;19;20022;-73
2023/11/05 09:48:36;;;;;;;3.67;1.83;;;12.30;87.90;;;;;;9163279;19;20021;-73
2023/11/05 09:51:48;;;;;;;5.35;2.35;;;12.30;87.90;;;;;;9162261;19;20021;-71
2023/11/05 09:54:53;;;;;;;6.50;2.38;;;12.40;87.90;;;;;;9158113;19;20011;-72
2023/11/05 09:58:04;;;;;;;3.90;2.42;;;12.40;87.90;;;;;;9162886;19;20027;-71
2023/11/05 10:01:10;;;;;;;6.13;2.22;;;12.40;87.90;;;;;;9161103;19;20020;-71
2023/11/05 10:04:18;;;;;;;8.70;2.72;;;12.40;87.80;;;;;;9161061;19;20869;-71
2023/11/05 10:07:23;;;;;;;5.57;1.90;;;12.50;87.80;;;;;;9160347;19;20021;-72
2023/11/05 10:10:31;;;;;;;7.70;2.42;;;12.50;87.80;;;;;;9161034;19;21118;-72
2023/11/05 10:13:40;;;;;;;10.18;2.88;;;12.50;87.90;;;;;;9168355;19;20504;-73
2023/11/05 10:16:47;;;;;;;7.93;2.03;;;12.60;87.90;;;;;;9168822;19;20007;-73
2023/11/05 10:19:53;;;;;;;5.40;1.80;;;12.60;87.80;;;;;;9166809;19;20018;-72
2023/11/05 10:23:05;;;;;;;7.25;2.22;;;12.60;87.80;;;;;;9167633;19;20465;-70
2023/11/05 10:26:19;;;;;;;5.10;1.80;;;12.60;87.80;;;;;;9169474;19;20014;-71
2023/11/05 10:29:28;;;;;;;;;;;12.60;87.80;;;;;;9168802;19;20018;-71
2023/11/05 10:32:34;;;;;;;5.60;2.00;;;12.70;87.80;;;;;;9166766;19;19943;-71
2023/11/05 10:35:43;;;;;;;7.22;1.80;;;12.70;87.70;;;;;;9167936;19;20018;-73
2023/11/05 10:38:49;;;;;;;9.10;2.50;;;12.70;87.80;;;;;;9169282;19;20022;-71
2023/11/05 10:42:00;;;;;;;7.80;2.35;;;12.70;87.80;;;;;;9165756;19;20018;-70
2023/11/05 10:45:12;;;;;;;8.90;2.38;;;12.70;87.90;;;;;;9167089;19;20036;-72
2023/11/05 10:48:19;;;;;;;7.45;2.42;;;12.80;87.90;;;;;;9167289;19;20014;-72
2023/11/05 10:51:27;;;;;;;9.10;2.70;;;12.80;87.80;;;;;;9166980;19;20017;-73
2023/11/05 10:54:34;;;;;;;7.05;2.78;;;12.80;87.90;;;;;;9161605;19;20025;-72
2023/11/05 10:57:46;;;;;;;11.55;2.83;;;12.80;87.80;;;;;;9166640;19;20131;-72
2023/11/05 11:01:03;;;;;;;4.57;2.70;;;12.90;87.80;;;;;;9165629;19;20022;-71
2023/11/05 11:04:10;;;;;;;9.35;2.90;;;12.90;87.80;;;;;;9160984;19;20022;-71
2023/11/05 11:07:21;;;;;;;8.05;2.90;;;12.90;87.80;;;;;;9163179;19;20014;-72
2023/11/05 11:10:28;;;;;;;15.68;3.65;;;13.00;87.90;;;;;;9164028;19;20039;-72
2023/11/05 11:13:38;;;;;;;10.13;2.72;;;13.00;87.80;;;;;;9165690;19;20026;-71
2023/11/05 11:16:47;;;;;;;9.65;3.00;;;13.00;87.70;;;;;;9167073;19;20022;-73
2023/11/05 11:19:57;;;;;;;10.48;2.42;;;13.00;87.70;;;;;;9165167;19;20025;-71
2023/11/05 11:23:03;;;;;;;16.42;2.92;;;13.10;87.70;;;;;;9161309;19;20018;-70
2023/11/05 11:26:24;;;;;;;13.05;3.42;;;13.10;87.80;;;;;;9164764;19;20022;-71
2023/11/05 11:29:31;;;;;;;9.60;2.92;;;13.10;87.70;;;;;;9165690;19;20033;-71
2023/11/05 11:32:42;;;;;;;11.63;3.10;;;13.10;87.70;;;;;;9167595;19;20770;-73
2023/11/05 11:35:48;;;;;;;10.50;3.42;;;13.10;87.70;;;;;;9167662;19;20015;-71
2023/11/05 11:38:56;;;;;;;11.90;3.28;;;13.10;87.70;;;;;;9163507;19;20424;-72
2023/11/05 11:42:03;;;;;;;10.00;3.80;;;13.20;87.70;;;;;;9165114;19;20030;-70
2023/11/05 11:45:12;;;;;;;8.70;4.18;;;13.10;87.60;;;;;;9165167;19;20034;-70
2023/11/05 11:48:25;;;;;;;13.73;2.92;;;13.20;87.60;;;;;;9167490;19;20025;-72
2023/11/05 11:51:37;;;;;;;11.57;2.72;;;13.20;87.60;;;;;;9167066;19;20014;-71
2023/11/05 11:54:45;;;;;;;6.78;3.05;;;13.20;87.40;;;;;;9160273;19;20047;-74
2023/11/05 11:57:52;;;;;;;9.25;3.00;;;13.10;87.40;;;;;;9167008;19;20011;-72
2023/11/05 12:00:59;;;;;;;8.13;2.83;;;13.10;87.40;;;;;;9165653;19;20018;-73
2023/11/05 12:04:10;;;;;;;13.10;3.08;;;13.10;87.40;;;;;;9167229;19;20021;-71
2023/11/05 12:07:15;;;;;;;7.93;2.90;;;13.10;87.40;;;;;;9159187;19;20014;-71
2023/11/05 12:10:25;;;;;;;9.90;3.25;;;13.10;87.40;;;;;;9164162;19;20353;-72
2023/11/05 12:13:33;;;;;;;10.23;3.42;;;13.10;87.40;;;;;;9165450;19;20017;-72
2023/11/05 12:16:41;;;;;;;6.25;2.90;;;13.10;87.50;;;;;;9166273;19;20023;-71
2023/11/05 12:19:49;;;;;;;5.40;3.05;;;13.10;87.50;;;;;;9164095;19;20019;-71
2023/11/05 12:22:59;;;;;;;9.13;3.47;;;13.00;87.40;;;;;;9162966;19;20828;-73
2023/11/05 12:26:06;;;;;;;9.13;3.08;;;13.00;87.50;;;;;;9164280;19;20949;-70
2023/11/05 12:29:13;;;;;;;8.75;3.47;;;13.00;87.50;;;;;;9166150;19;20021;-72
2023/11/05 12:32:33;;;;;;;5.13;2.10;;;13.00;87.50;;;;;;9165185;19;20022;-71
2023/11/05 12:35:43;;;;;;;6.57;2.55;;;13.00;87.50;;;;;;9161512;19;20369;-72
2023/11/05 12:38:50;;;;;;;4.15;2.15;;;13.00;87.50;;;;;;9163186;19;20528;-72
2023/11/05 12:41:57;;;;;;;6.00;2.15;;;13.00;87.50;;;;;;9162217;19;20014;-72
2023/11/05 12:45:03;;;;;;;5.38;1.85;;;13.00;87.50;;;;;;9164487;19;20021;-73
2023/11/05 12:48:12;;;;;;;3.40;1.63;;;13.00;87.50;;;;;;9162977;19;20022;-70
2023/11/05 12:51:20;;;;;;;3.63;2.00;;;13.00;87.40;;;;;;9162280;19;20235;-71
2023/11/05 12:54:28;;;;;;;5.25;1.50;;;13.00;87.40;;;;;;9159756;19;20053;-73
2023/11/05 12:57:34;;;;;;;2.53;1.83;;;13.00;87.30;;;;;;9164199;19;20014;-72
2023/11/05 13:00:41;;;;;;;2.78;1.67;;;12.90;87.30;;;;;;9164686;19;20011;-71
2023/11/05 13:03:46;;;;;;;2.88;1.55;;;12.90;87.30;;;;;;9160416;19;20492;-71
2023/11/05 13:06:58;;;;;;;3.83;1.75;;;12.90;87.40;;;;;;9159600;19;20026;-71
2023/11/05 13:10:03;;;;;;;4.18;1.50;;;12.90;87.40;;;;;;9159647;19;20018;-70
2023/11/05 13:13:11;;;;;;;2.53;1.80;;;12.90;87.40;;;;;;9163574;19;20019;-70
2023/11/05 13:16:16;;;;;;;2.80;1.90;;;12.90;87.50;;;;;;9163558;19;20018;-74
2023/11/05 13:19:24;;;;;;;3.03;1.77;;;12.80;87.50;;;;;;9162754;19;20022;-71
2023/11/05 13:22:32;;;;;;;3.70;1.98;;;12.80;87.50;;;;;;9160656;19;20019;-72
2023/11/05 13:25:40;;;;;;;2.90;1.77;;;12.80;87.50;;;;;;9163531;19;20022;-73
2023/11/05 13:28:45;;;;;;;4.90;2.00;;;12.80;87.60;;;;;;9163603;19;20045;-71
2023/11/05 13:31:54;;;;;;;3.13;1.77;;;12.80;87.50;;;;;;9159124;19;20014;-73
2023/11/05 13:34:59;;;;;;;3.88;1.80;;;12.80;87.60;;;;;;9162993;19;20467;-71
2023/11/05 13:38:09;;;;;;;2.28;1.58;;;12.70;87.50;;;;;;9162755;19;20023;-70
2023/11/05 13:41:15;;;;;;;2.97;1.75;;;12.70;87.70;;;;;;9163136;19;20011;-71
2023/11/05 13:44:23;;;;;;;2.88;1.45;;;12.70;87.70;;;;;;9157811;19;20014;-74
2023/11/05 13:47:28;;;;;;;10.80;3.05;;;12.70;87.70;;;;;;9178230;19;20026;-70
2023/11/05 13:50:35;;;;;;;3.80;1.63;;;12.70;87.80;;;;;;9176046;19;20019;-73
2023/11/05 13:53:43;;;;;;;3.97;1.70;;;12.70;87.80;;;;;;9177338;19;20465;-70
2023/11/05 13:56:51;;;;;;;6.13;2.10;;;12.70;87.80;;;;;;9173498;19;20018;-71
2023/11/05 13:59:58;;;;;;;3.22;1.65;;;12.80;87.90;;;;;;9176153;19;20045;-70
2023/11/05 14:03:07;;;;;;;4.55;2.22;;;12.80;87.80;;;;;;9176492;19;20014;-72
2023/11/05 14:06:12;;;;;;;3.30;1.95;;;12.80;87.70;;;;;;9179323;19;20025;-71
2023/11/05 14:09:23;;;;;;;8.05;2.08;;;12.80;87.70;;;;;;9175400;19;20033;-71
2023/11/05 14:12:28;;;;;;;5.25;2.60;;;12.90;87.70;;;;;;9177047;19;20014;-72
2023/11/05 14:15:35;;;;;;;8.63;2.13;;;12.90;87.60;;;;;;9174971;19;20814;-72
2023/11/05 14:18:48;;;;;;;5.85;2.08;;;12.90;87.50;;;;;;9177909;19;20094;-73
2023/11/05 14:22:08;;;;;;;6.38;1.80;;;12.90;87.40;;;;;;9173134;19;20385;-70
2023/11/05 14:25:18;;;;;;;5.28;2.05;;;12.80;87.30;;;;;;9177097;19;20090;-70
2023/11/05 14:28:24;;;;;;;6.43;2.45;;;12.80;87.40;;;;;;9176090;19;20384;-71
2023/11/05 14:31:31;;;;;;;13.10;3.30;;;12.80;87.50;;;;;;9176018;19;20014;-71
2023/11/05 14:34:37;;;;;;;6.20;1.80;;;12.80;87.40;;;;;;9176524;19;20014;-71
2023/11/05 14:37:44;;;;;;;5.57;1.88;;;12.80;87.50;;;;;;9176362;19;20014;-71
2023/11/05 14:40:52;;;;;;;6.05;1.88;;;12.80;87.40;;;;;;9176392;19;20352;-73
2023/11/05 14:44:00;;;;;;;4.25;1.40;;;12.70;87.30;;;;;;9174580;19;20017;-73
2023/11/05 14:47:06;;;;;;;1.98;1.40;;;12.70;87.30;;;;;;9176339;19;20633;-72
2023/11/05 14:50:13;;;;;;;8.23;1.90;;;12.70;87.40;;;;;;9176286;19;20026;-72
2023/11/05 14:53:19;;;;;;;2.85;1.58;;;12.70;87.50;;;;;;9168799;19;20022;-73
2023/11/05 14:56:29;;;;;;;3.13;1.63;;;12.70;88.10;;;;;;9167195;19;20030;-72
2023/11/05 14:59:34;;;;;;;4.13;1.23;;;12.70;87.50;;;;;;9163740;19;20026;-72
2023/11/05 15:02:43;;;;;;;4.05;1.50;;;12.60;87.50;;;;;;9160884;19;20025;-71
2023/11/05 15:05:48;;;;;;;4.03;1.40;;;12.60;87.50;;;;;;9162685;19;20025;-72
2023/11/05 15:08:56;;;;;;;2.50;1.17;;;12.60;87.50;;;;;;9162704;19;20018;-73
2023/11/05 15:12:05;;;;;;;3.20;1.80;;;12.60;87.50;;;;;;9163165;19;20021;-73
2023/11/05 15:15:25;;;;;;;3.63;0.80;;;12.60;87.50;;;;;;9165069;19;20131;-72
2023/11/05 15:18:31;;;;;;;6.88;1.65;;;12.60;87.50;;;;;;9166877;19;20017;-72
2023/11/05 15:21:44;;;;;;;6.90;1.80;;;12.50;87.60;;;;;;9164390;19;20023;-73
2023/11/05 15:24:50;;;;;;;8.68;1.90;;;12.50;87.50;;;;;;9161850;19;20014;-72
2023/11/05 15:28:00;;;;;;;6.65;1.77;;;12.50;87.50;;;;;;9165070;19;20037;-71
2023/11/05 15:31:09;;;;;;;5.40;1.75;;;12.50;87.60;;;;;;9165017;19;20056;-73
2023/11/05 15:34:17;;;;;;;10.65;1.48;;;12.50;88.20;;;;;;9164300;19;20025;-73
2023/11/05 15:37:22;;;;;;;5.20;1.42;;;12.40;87.50;;;;;;9159036;19;20383;-73
2023/11/05 15:40:30;;;;;;;3.72;1.38;;;12.40;87.50;;;;;;9159292;19;20029;-71
2023/11/05 15:43:38;;;;;;;3.53;1.08;;;12.40;87.60;;;;;;9151387;19;20014;-74
2023/11/05 15:46:48;;;;;;;4.18;1.10;;;12.40;87.60;;;;;;9156872;19;20014;-73
2023/11/05 15:49:54;;;;;;;5.72;1.35;;;12.30;87.50;;;;;;9156685;19;20432;-73
2023/11/05 15:53:03;;;;;;;11.90;1.45;;;12.30;87.50;;;;;;9157439;19;20006;-74
2023/11/05 15:56:09;;;;;;;2.95;1.45;;;12.30;87.60;;;;;;9159856;19;20018;-72
2023/11/05 15:59:22;;;;;;;9.88;1.50;;;12.30;87.60;;;;;;9164796;19;20097;-73
2023/11/05 16:02:28;;;;;;;4.45;1.38;;;12.30;87.60;;;;;;9162711;19;20101;-74
2023/11/05 16:05:37;;;;;;;3.00;1.55;;;12.30;87.60;;;;;;9160538;19;20014;-73
2023/11/05 16:08:42;;;;;;;9.98;1.50;;;12.30;87.60;;;;;;9157559;19;20377;-72
2023/11/05 16:11:50;;;;;;;9.52;1.70;;;12.20;87.50;;;;;;9162321;19;20018;-72
2023/11/05 16:14:58;;;;;;;6.93;1.40;;;12.20;87.50;;;;;;9163949;19;20038;-72